Time;durP1;ratioP1;P1;durP2;ratioP2;P2;SDS_P1;SDS_P2;PMS_P1;PMS_P2;Temp;Humidity;BMP_temperature;BMP_pressure;BME280_temperature;BME280_humidity;BME280_pressure;Samples;Min_cycle;Max_cycle;Signal;HPM_P1;HPM_P2
2021/04/12 00:01:07;;;;;;;3.50;1.80;;;3.30;76.80;;;;;;4943116;29;20855;-73
2021/04/12 00:03:51;;;;;;;6.60;2.33;;;3.30;77.00;;;;;;4941497;29;20469;-74
2021/04/12 00:06:21;;;;;;;3.10;1.83;;;3.30;77.10;;;;;;4924144;29;20449;-74
2021/04/12 00:09:05;;;;;;;2.73;1.90;;;3.30;76.80;;;;;;4941624;29;20874;-74
2021/04/12 00:11:47;;;;;;;4.50;2.27;;;3.20;76.50;;;;;;4923877;29;20808;-74
2021/04/12 00:14:19;;;;;;;6.93;2.10;;;3.20;76.60;;;;;;4922367;29;20422;-76
2021/04/12 00:16:53;;;;;;;2.60;1.70;;;3.20;76.60;;;;;;4923237;29;20508;-74
2021/04/12 00:19:32;;;;;;;5.60;1.60;;;3.20;76.70;;;;;;4940282;29;20493;-75
2021/04/12 00:22:11;;;;;;;8.13;2.70;;;3.20;76.70;;;;;;4940824;29;20433;-75
2021/04/12 00:25:08;;;;;;;5.40;3.63;;;3.20;76.40;;;;;;4922566;29;20429;-74
2021/04/12 00:27:46;;;;;;;5.27;2.33;;;3.20;76.30;;;;;;4923221;29;20480;-74
2021/04/12 00:30:26;;;;;;;2.33;1.83;;;3.20;76.50;;;;;;4939706;29;20465;-74
2021/04/12 00:32:58;;;;;;;7.90;2.03;;;3.10;76.50;;;;;;4939345;29;20434;-74
2021/04/12 00:35:36;;;;;;;3.70;1.60;;;3.10;76.50;;;;;;4922891;29;20923;-75
2021/04/12 00:38:13;;;;;;;2.33;1.87;;;3.10;76.80;;;;;;4939022;29;20853;-74
2021/04/12 00:41:03;;;;;;;7.50;1.83;;;3.10;76.80;;;;;;4937934;29;20520;-74
2021/04/12 00:44:10;;;;;;;4.30;2.10;;;3.00;76.70;;;;;;4920479;29;20416;-76
2021/04/12 00:46:44;;;;;;;3.97;1.87;;;3.00;77.10;;;;;;4940341;29;20755;-73
2021/04/12 00:49:35;;;;;;;3.60;1.90;;;3.00;77.00;;;;;;4937556;29;20393;-74
2021/04/12 00:52:19;;;;;;;2.63;1.70;;;3.00;77.20;;;;;;4922571;29;20532;-74
2021/04/12 00:55:14;;;;;;;2.47;1.60;;;3.00;77.30;;;;;;4921775;29;20402;-75
2021/04/12 00:57:46;;;;;;;5.10;1.73;;;3.00;77.50;;;;;;4919167;29;20500;-76
2021/04/12 01:00:43;;;;;;;7.70;1.97;;;2.90;77.30;;;;;;4939472;29;20402;-74
2021/04/12 01:03:19;;;;;;;4.87;2.33;;;2.90;77.40;;;;;;4918080;29;20986;-75
2021/04/12 01:06:25;;;;;;;4.10;1.90;;;2.90;77.60;;;;;;4935644;29;20460;-74
2021/04/12 01:09:19;;;;;;;4.37;2.10;;;2.90;77.80;;;;;;4886028;29;20421;-75
2021/04/12 01:12:01;;;;;;;3.17;2.30;;;2.90;77.80;;;;;;4918192;29;20449;-75
2021/04/12 01:14:55;;;;;;;4.57;1.83;;;2.90;77.90;;;;;;4918620;29;20504;-74
2021/04/12 01:17:26;;;;;;;4.50;3.40;;;2.80;78.00;;;;;;4928126;29;20409;-75
2021/04/12 01:20:07;;;;;;;2.97;2.10;;;2.90;78.20;;;;;;4935599;29;20413;-74
2021/04/12 01:23:11;;;;;;;3.70;2.50;;;2.90;78.10;;;;;;4918407;29;20476;-73
2021/04/12 01:25:51;;;;;;;6.13;2.47;;;2.90;77.90;;;;;;4901954;29;20457;-75
2021/04/12 01:28:55;;;;;;;11.50;2.47;;;2.80;77.60;;;;;;4935579;29;20410;-75
2021/04/12 01:31:53;;;;;;;5.03;2.47;;;2.80;77.80;;;;;;4936338;29;20440;-75
2021/04/12 01:34:36;;;;;;;6.10;2.50;;;2.80;78.10;;;;;;4921726;29;20421;-74
2021/04/12 01:37:39;;;;;;;3.70;1.80;;;2.70;78.10;;;;;;4924930;29;20888;-74
2021/04/12 01:40:23;;;;;;;4.53;2.60;;;2.70;78.40;;;;;;4929636;29;20421;-75
2021/04/12 01:42:51;;;;;;;6.10;2.30;;;2.70;78.60;;;;;;4935953;29;20843;-74
2021/04/12 01:45:29;;;;;;;3.77;2.57;;;2.70;78.90;;;;;;4935417;29;20453;-74
2021/04/12 01:48:42;;;;;;;4.73;2.40;;;2.70;79.00;;;;;;4918091;29;20432;-75
2021/04/12 01:51:28;;;;;;;6.00;3.77;;;2.60;79.20;;;;;;4838488;29;20473;-74
2021/04/12 01:54:24;;;;;;;7.23;3.00;;;2.70;79.50;;;;;;4838927;29;20414;-74
2021/04/12 01:57:18;;;;;;;6.63;2.83;;;2.60;79.70;;;;;;4916515;29;20530;-74
2021/04/12 02:00:05;;;;;;;6.43;3.40;;;2.60;79.90;;;;;;4934580;29;20416;-74
2021/04/12 02:03:13;;;;;;;7.60;2.60;;;2.60;80.00;;;;;;4934257;29;20764;-75
2021/04/12 02:06:01;;;;;;;4.93;2.60;;;2.60;80.20;;;;;;4936138;29;20457;-75
2021/04/12 02:08:48;;;;;;;5.63;2.73;;;2.60;80.30;;;;;;4923034;29;20421;-76
2021/04/12 02:11:41;;;;;;;6.80;2.43;;;2.60;80.40;;;;;;4940841;29;20499;-75
2021/04/12 02:14:29;;;;;;;11.60;3.20;;;2.50;80.30;;;;;;4937536;29;20566;-75
2021/04/12 02:17:07;;;;;;;9.10;3.50;;;2.60;80.50;;;;;;4921706;29;20410;-75
2021/04/12 02:19:45;;;;;;;5.73;3.90;;;2.50;80.60;;;;;;4939341;29;20417;-76
2021/04/12 02:22:23;;;;;;;4.80;2.60;;;2.50;80.80;;;;;;4922230;29;20445;-74
2021/04/12 02:25:05;;;;;;;8.63;4.10;;;2.50;81.00;;;;;;4908877;29;20827;-74
2021/04/12 02:27:36;;;;;;;6.60;3.10;;;2.50;81.10;;;;;;4941640;29;20410;-75
2021/04/12 02:30:17;;;;;;;8.80;3.17;;;2.50;81.20;;;;;;4924127;29;20573;-74
2021/04/12 02:33:09;;;;;;;4.30;2.90;;;2.50;81.20;;;;;;4938610;29;20458;-75
2021/04/12 02:36:00;;;;;;;7.07;3.20;;;2.50;81.30;;;;;;4921999;29;20453;-75
2021/04/12 02:39:01;;;;;;;4.07;2.97;;;2.50;81.30;;;;;;4911528;29;20441;-74
2021/04/12 02:41:29;;;;;;;6.50;3.80;;;2.50;81.40;;;;;;4901917;29;20453;-74
2021/04/12 02:44:10;;;;;;;5.87;3.87;;;2.50;81.40;;;;;;4925786;29;20406;-74
2021/04/12 02:47:07;;;;;;;3.50;3.10;;;2.50;81.50;;;;;;4908171;29;20437;-74
2021/04/12 02:50:10;;;;;;;4.50;2.40;;;2.40;81.70;;;;;;4924863;29;20840;-74
2021/04/12 02:52:57;;;;;;;4.43;3.13;;;2.40;81.70;;;;;;4923695;29;20452;-75
2021/04/12 02:56:01;;;;;;;3.37;3.03;;;2.40;81.80;;;;;;4921389;29;20477;-74
2021/04/12 02:59:15;;;;;;;5.93;3.23;;;2.40;81.60;;;;;;4940049;29;20429;-74
2021/04/12 03:02:01;;;;;;;18.63;4.23;;;2.30;81.80;;;;;;4920926;29;20827;-74
2021/04/12 03:05:02;;;;;;;8.03;3.93;;;2.30;82.00;;;;;;4920746;29;20433;-74
2021/04/12 03:07:40;;;;;;;6.30;2.83;;;2.40;82.10;;;;;;4923346;29;20423;-73
2021/04/12 03:10:16;;;;;;;12.23;3.57;;;2.40;82.10;;;;;;4940909;29;20891;-73
2021/04/12 03:12:45;;;;;;;4.20;2.97;;;2.40;82.00;;;;;;4924299;29;20740;-72
2021/04/12 03:15:43;;;;;;;7.33;4.17;;;2.40;82.10;;;;;;4923531;29;20433;-72
2021/04/12 03:18:43;;;;;;;9.63;4.30;;;2.40;82.10;;;;;;4918770;29;20505;-74
2021/04/12 03:21:32;;;;;;;10.90;4.30;;;2.40;82.10;;;;;;4936819;29;20442;-73
2021/04/12 03:24:20;;;;;;;6.30;3.57;;;2.40;82.20;;;;;;4899008;29;21096;-73
2021/04/12 03:26:58;;;;;;;14.93;4.43;;;2.30;82.90;;;;;;4936390;29;20446;-73
2021/04/12 03:29:53;;;;;;;7.77;4.20;;;2.30;82.50;;;;;;4935704;29;20445;-74
2021/04/12 03:32:50;;;;;;;7.70;4.10;;;2.30;82.60;;;;;;4922602;29;20437;-73
2021/04/12 03:35:24;;;;;;;14.83;4.40;;;2.30;82.70;;;;;;4925033;29;20428;-73
2021/04/12 03:37:56;;;;;;;6.10;4.07;;;2.20;82.70;;;;;;4944629;29;20428;-74
2021/04/12 03:40:28;;;;;;;7.90;5.20;;;2.20;82.90;;;;;;4944335;29;20445;-73
2021/04/12 03:43:32;;;;;;;12.87;5.00;;;2.10;83.20;;;;;;4944626;29;20397;-74
2021/04/12 03:46:06;;;;;;;11.30;5.60;;;2.10;83.50;;;;;;4942712;29;20568;-75
2021/04/12 03:48:59;;;;;;;13.73;4.70;;;2.10;83.60;;;;;;4946358;29;20460;-75
2021/04/12 03:52:02;;;;;;;19.93;4.67;;;2.10;83.90;;;;;;4931370;29;20460;-75
2021/04/12 03:54:41;;;;;;;7.70;4.57;;;2.10;84.70;;;;;;4937713;29;20573;-74
2021/04/12 03:57:33;;;;;;;9.47;4.70;;;2.10;84.10;;;;;;4926428;29;20500;-74
2021/04/12 04:00:17;;;;;;;9.57;5.00;;;2.10;84.00;;;;;;4934679;29;20481;-75
2021/04/12 04:03:14;;;;;;;10.90;4.73;;;2.10;84.20;;;;;;4947784;29;20405;-75
2021/04/12 04:06:05;;;;;;;9.70;4.80;;;2.00;84.10;;;;;;4952801;29;20452;-74
2021/04/12 04:08:42;;;;;;;8.80;4.90;;;2.00;84.30;;;;;;4943147;29;20464;-75
2021/04/12 04:11:41;;;;;;;5.87;3.40;;;2.00;84.40;;;;;;4935938;29;20424;-75
2021/04/12 04:14:16;;;;;;;13.00;3.93;;;2.00;84.60;;;;;;4928219;29;20434;-75
2021/04/12 04:17:32;;;;;;;6.50;3.53;;;2.00;84.70;;;;;;4938825;29;20764;-74
2021/04/12 04:20:16;;;;;;;6.70;4.10;;;1.90;84.60;;;;;;4920169;29;20420;-74
2021/04/12 04:23:03;;;;;;;8.70;3.63;;;1.90;84.50;;;;;;4954325;29;20438;-74
2021/04/12 04:26:02;;;;;;;10.00;4.07;;;1.90;84.50;;;;;;4919891;29;20481;-75
2021/04/12 04:28:30;;;;;;;11.33;5.67;;;1.90;84.70;;;;;;4924916;29;20436;-74
2021/04/12 04:31:26;;;;;;;5.97;4.00;;;1.90;84.70;;;;;;4923498;29;21002;-74
2021/04/12 04:34:10;;;;;;;11.43;4.47;;;1.90;84.80;;;;;;4936678;29;20418;-74
2021/04/12 04:36:54;;;;;;;10.60;5.00;;;1.90;84.90;;;;;;4936454;29;20414;-75
2021/04/12 04:39:51;;;;;;;11.20;5.10;;;1.80;84.80;;;;;;4936485;29;20402;-75
2021/04/12 04:42:41;;;;;;;8.10;4.93;;;1.80;84.80;;;;;;4935982;29;20428;-75
2021/04/12 04:45:26;;;;;;;6.57;4.10;;;1.80;84.90;;;;;;4919314;29;20905;-74
2021/04/12 04:48:19;;;;;;;8.97;4.67;;;1.70;85.00;;;;;;4936382;29;20414;-74
2021/04/12 04:51:20;;;;;;;7.83;3.77;;;1.70;85.10;;;;;;4936114;29;20831;-74
2021/04/12 04:53:55;;;;;;;10.73;3.73;;;1.70;85.10;;;;;;4914330;29;20422;-73
2021/04/12 04:56:37;;;;;;;8.03;4.47;;;1.70;85.20;;;;;;4919036;29;20443;-74
2021/04/12 04:59:20;;;;;;;7.30;3.40;;;1.70;85.40;;;;;;4918932;29;20441;-75
2021/04/12 05:01:54;;;;;;;8.87;4.20;;;1.70;85.40;;;;;;4919163;29;20524;-74
2021/04/12 05:04:48;;;;;;;7.93;4.37;;;1.70;85.50;;;;;;4935824;29;20919;-76
2021/04/12 05:08:00;;;;;;;6.20;3.80;;;1.70;85.10;;;;;;4935957;29;20418;-75
2021/04/12 05:10:35;;;;;;;7.47;4.07;;;1.70;85.20;;;;;;4900542;29;20429;-74
2021/04/12 05:13:09;;;;;;;7.83;5.07;;;1.70;85.20;;;;;;4916730;29;20460;-74
2021/04/12 05:16:12;;;;;;;13.00;4.97;;;1.70;85.10;;;;;;4916760;29;20461;-73
2021/04/12 05:18:47;;;;;;;9.63;4.60;;;1.70;84.80;;;;;;4900913;29;20414;-74
2021/04/12 05:21:48;;;;;;;18.00;4.80;;;1.80;84.80;;;;;;4921348;29;21141;-74
2021/04/12 05:24:31;;;;;;;10.80;4.87;;;1.80;84.80;;;;;;4916786;29;20417;-74
2021/04/12 05:27:08;;;;;;;10.77;4.70;;;1.80;84.60;;;;;;4922649;29;20414;-75
2021/04/12 05:29:57;;;;;;;5.50;4.10;;;1.90;84.40;;;;;;4934983;29;20433;-74
2021/04/12 05:33:00;;;;;;;8.73;4.80;;;1.90;84.30;;;;;;4915688;29;20959;-76
2021/04/12 05:35:38;;;;;;;7.60;4.83;;;1.90;84.50;;;;;;4935873;29;20416;-76
2021/04/12 05:38:18;;;;;;;7.40;4.13;;;2.00;84.50;;;;;;4936473;29;20821;-76
2021/04/12 05:41:12;;;;;;;6.70;4.50;;;2.00;84.20;;;;;;4918471;29;20529;-75
2021/04/12 05:43:56;;;;;;;8.53;5.43;;;2.10;84.10;;;;;;4936029;29;20441;-73
2021/04/12 05:46:47;;;;;;;11.20;4.80;;;2.20;84.30;;;;;;4919176;29;20753;-74
2021/04/12 05:49:29;;;;;;;15.83;5.10;;;2.40;84.30;;;;;;4935986;29;20454;-75
2021/04/12 05:52:32;;;;;;;10.43;5.37;;;2.60;83.60;;;;;;4936471;29;20974;-73
2021/04/12 05:55:19;;;;;;;7.57;4.90;;;2.70;82.40;;;;;;4936294;29;20998;-74
2021/04/12 05:58:10;;;;;;;11.13;5.53;;;2.90;82.00;;;;;;4918719;29;20421;-75
2021/04/12 06:01:05;;;;;;;14.03;6.63;;;3.00;81.40;;;;;;4923759;29;20453;-74
2021/04/12 06:03:49;;;;;;;11.60;5.70;;;3.00;80.60;;;;;;4922373;29;20489;-73
2021/04/12 06:06:36;;;;;;;11.23;6.17;;;3.10;80.00;;;;;;4940438;29;20572;-73
2021/04/12 06:09:28;;;;;;;12.03;6.97;;;3.00;79.50;;;;;;4933337;29;20429;-74
2021/04/12 06:12:15;;;;;;;10.90;5.53;;;3.00;79.60;;;;;;4916607;29;20517;-74
2021/04/12 06:15:05;;;;;;;13.83;6.20;;;3.00;80.30;;;;;;4929221;29;20433;-75
2021/04/12 06:17:41;;;;;;;13.40;6.27;;;3.10;80.40;;;;;;4922064;29;20442;-75
2021/04/12 06:20:30;;;;;;;20.00;7.60;;;3.10;80.40;;;;;;4930624;29;20464;-73
2021/04/12 06:23:08;;;;;;;7.67;5.80;;;3.20;79.90;;;;;;4905960;29;20779;-79
2021/04/12 06:26:04;;;;;;;10.07;5.47;;;3.30;78.90;;;;;;4928279;29;20450;-80
2021/04/12 06:28:54;;;;;;;13.93;6.60;;;3.40;79.00;;;;;;4932741;29;20784;-79
2021/04/12 06:31:47;;;;;;;12.73;5.70;;;3.60;78.40;;;;;;4924847;29;20446;-78
2021/04/12 06:34:18;;;;;;;7.07;5.23;;;3.80;77.70;;;;;;4917135;29;20665;-78
2021/04/12 06:36:47;;;;;;;9.90;6.07;;;3.80;77.10;;;;;;4939908;29;20429;-80
2021/04/12 06:39:39;;;;;;;13.60;6.40;;;4.00;77.60;;;;;;4925257;29;21104;-79
2021/04/12 06:42:17;;;;;;;10.87;6.67;;;4.10;76.50;;;;;;4949050;29;20457;-79
2021/04/12 06:44:57;;;;;;;12.63;6.17;;;4.20;75.00;;;;;;4925962;29;20533;-78
2021/04/12 06:47:23;;;;;;;12.30;6.77;;;4.20;74.80;;;;;;4916924;29;20852;-78
2021/04/12 06:50:04;;;;;;;11.17;6.70;;;4.30;75.30;;;;;;4931168;29;20419;-78
2021/04/12 06:52:44;;;;;;;12.23;7.30;;;4.50;74.30;;;;;;4910297;29;20650;-78
2021/04/12 06:55:17;;;;;;;11.47;6.80;;;4.50;75.10;;;;;;4941126;29;20452;-79
2021/04/12 06:58:24;;;;;;;15.87;6.77;;;4.70;74.80;;;;;;4926982;29;20453;-79
2021/04/12 07:01:14;;;;;;;10.53;6.60;;;4.90;73.30;;;;;;4916313;29;20430;-78
2021/04/12 07:04:15;;;;;;;8.10;6.43;;;5.30;73.70;;;;;;4928900;29;20430;-78
2021/04/12 07:07:04;;;;;;;13.10;5.37;;;5.80;71.50;;;;;;4912462;29;20539;-77
2021/04/12 07:09:42;;;;;;;11.50;6.90;;;6.30;70.20;;;;;;4945126;29;20479;-78
2021/04/12 07:12:36;;;;;;;10.23;5.93;;;6.60;68.70;;;;;;4942652;29;20451;-77
2021/04/12 07:15:34;;;;;;;10.23;6.60;;;7.00;66.70;;;;;;4931170;29;20449;-78
2021/04/12 07:18:52;;;;;;;13.23;8.50;;;7.10;65.80;;;;;;4922980;29;20424;-78
2021/04/12 07:22:00;;;;;;;8.60;6.00;;;6.90;65.10;;;;;;4914100;29;20465;-78
2021/04/12 07:25:06;;;;;;;8.30;5.80;;;6.70;65.40;;;;;;4899454;29;20419;-78
2021/04/12 07:28:11;;;;;;;10.80;7.67;;;6.40;66.30;;;;;;4914351;29;20500;-79
2021/04/12 07:31:41;;;;;;;8.70;6.37;;;6.20;66.00;;;;;;4931828;29;20442;-77
2021/04/12 07:34:32;;;;;;;9.90;5.90;;;5.90;67.70;;;;;;4941296;29;20501;-78
2021/04/12 07:37:16;;;;;;;10.60;6.30;;;6.00;69.10;;;;;;4896741;29;20424;-76
2021/04/12 07:40:09;;;;;;;12.43;6.63;;;6.10;68.20;;;;;;4907983;29;20421;-78
2021/04/12 07:43:08;;;;;;;12.87;6.43;;;6.10;67.40;;;;;;4918368;29;20445;-78
2021/04/12 07:46:13;;;;;;;14.27;6.93;;;6.10;68.40;;;;;;4901003;29;20454;-78
2021/04/12 07:53:07;;;;;;;12.07;8.27;;;6.50;67.90;;;;;;4986939;23;20472;-78
2021/04/12 07:56:06;;;;;;;11.60;9.23;;;7.50;66.60;;;;;;4953337;28;20522;-79
2021/04/12 07:59:10;;;;;;;11.90;7.80;;;8.30;61.40;;;;;;4965716;28;20459;-77
2021/04/12 08:01:50;;;;;;;9.33;6.33;;;8.30;60.70;;;;;;4925248;29;20413;-76
2021/04/12 08:04:41;;;;;;;13.70;7.03;;;9.20;62.60;;;;;;4939031;29;20433;-77
2021/04/12 08:07:28;;;;;;;8.23;6.50;;;10.40;55.60;;;;;;4934880;29;20433;-78
2021/04/12 08:10:14;;;;;;;16.80;8.80;;;10.20;55.40;;;;;;4935341;29;20517;-78
2021/04/12 08:13:01;;;;;;;10.60;7.50;;;9.50;55.90;;;;;;4942590;29;20430;-79
2021/04/12 08:15:39;;;;;;;16.70;11.10;;;8.70;56.00;;;;;;4943368;29;20427;-78
2021/04/12 08:18:26;;;;;;;14.10;8.63;;;7.90;58.60;;;;;;4896118;29;20436;-77
2021/04/12 08:21:30;;;;;;;12.73;9.30;;;7.40;61.30;;;;;;4930256;29;20520;-79
2021/04/12 08:24:35;;;;;;;12.13;8.90;;;7.10;64.40;;;;;;4951827;29;20424;-79
2021/04/12 08:27:15;;;;;;;13.40;9.77;;;7.00;66.20;;;;;;4929816;29;20524;-77
2021/04/12 08:30:14;;;;;;;9.93;8.87;;;7.30;67.90;;;;;;4948053;29;20437;-76
2021/04/12 08:32:58;;;;;;;13.80;9.50;;;7.50;64.80;;;;;;4949896;29;20492;-78
2021/04/12 08:36:13;;;;;;;12.37;9.10;;;7.40;64.50;;;;;;4929063;29;20441;-77
2021/04/12 08:39:06;;;;;;;13.77;10.47;;;7.30;65.10;;;;;;4934573;29;20445;-77
2021/04/12 08:41:41;;;;;;;16.20;9.60;;;7.00;66.20;;;;;;4926345;29;20557;-78
2021/04/12 08:44:09;;;;;;;13.60;10.07;;;6.80;66.90;;;;;;4949445;29;20476;-78
2021/04/12 08:46:53;;;;;;;14.50;10.87;;;6.70;68.50;;;;;;4929199;29;20465;-78
2021/04/12 08:49:55;;;;;;;10.70;9.47;;;6.60;69.00;;;;;;4939392;29;20541;-77
2021/04/12 08:53:02;;;;;;;12.40;8.97;;;6.40;69.30;;;;;;4925511;29;20441;-77
2021/04/12 08:56:08;;;;;;;13.70;9.00;;;6.20;69.80;;;;;;4940752;29;20469;-78
2021/04/12 08:59:11;;;;;;;16.07;11.53;;;6.20;71.10;;;;;;4907783;29;20454;-77
2021/04/12 09:02:27;;;;;;;13.57;9.60;;;6.30;72.70;;;;;;4937932;29;20426;-77
2021/04/12 09:05:12;;;;;;;11.83;10.20;;;6.30;72.00;;;;;;4850086;29;20495;-77
2021/04/12 09:08:06;;;;;;;9.90;7.43;;;6.80;73.50;;;;;;4925647;29;20426;-78
2021/04/12 09:11:11;;;;;;;10.20;7.50;;;7.60;68.30;;;;;;4940476;29;20907;-76
2021/04/12 09:14:08;;;;;;;12.10;7.87;;;8.30;65.00;;;;;;4912054;29;20581;-77
2021/04/12 09:17:08;;;;;;;11.87;7.47;;;8.80;64.70;;;;;;4929542;29;20796;-78
2021/04/12 09:20:02;;;;;;;10.07;7.87;;;9.00;62.10;;;;;;4932101;29;20464;-78
2021/04/12 09:23:04;;;;;;;9.43;8.20;;;9.10;59.70;;;;;;4913391;29;20587;-79
2021/04/12 09:25:48;;;;;;;9.47;7.63;;;9.40;59.70;;;;;;4922408;29;20461;-77
2021/04/12 09:28:33;;;;;;;9.17;7.80;;;10.30;56.70;;;;;;4938496;29;20563;-77
2021/04/12 09:31:14;;;;;;;11.70;8.10;;;10.90;56.00;;;;;;4928915;29;20434;-78
2021/04/12 09:34:03;;;;;;;12.40;9.03;;;11.40;53.80;;;;;;4923677;29;20410;-77
2021/04/12 09:36:42;;;;;;;9.30;6.83;;;11.20;53.00;;;;;;4933386;29;20459;-76
2021/04/12 09:39:59;;;;;;;7.17;6.10;;;10.70;53.90;;;;;;4936357;29;20484;-78
2021/04/12 09:42:52;;;;;;;9.53;5.90;;;11.20;54.40;;;;;;4893193;29;20799;-79
2021/04/12 09:45:39;;;;;;;10.00;8.10;;;11.90;51.90;;;;;;4940537;29;20602;-76
2021/04/12 09:48:26;;;;;;;12.17;7.23;;;12.60;52.30;;;;;;4916952;29;20426;-77
2021/04/12 09:51:30;;;;;;;8.20;6.50;;;13.00;49.10;;;;;;4922555;29;20521;-79
2021/04/12 09:54:14;;;;;;;6.17;5.20;;;12.90;48.90;;;;;;4933225;29;20430;-77
2021/04/12 09:57:17;;;;;;;6.47;5.00;;;12.70;48.40;;;;;;4938276;29;20531;-76
2021/04/12 10:00:16;;;;;;;5.17;2.40;;;12.40;48.10;;;;;;4926371;29;20568;-79
2021/04/12 10:03:19;;;;;;;5.10;3.37;;;12.40;47.40;;;;;;4925113;29;20436;-79
2021/04/12 10:06:20;;;;;;;5.63;4.87;;;13.40;45.40;;;;;;4956696;29;20444;-78
2021/04/12 10:08:46;;;;;;;5.73;5.17;;;13.60;45.00;;;;;;4929574;29;20450;-77
2021/04/12 10:11:16;;;;;;;9.73;6.33;;;12.80;45.00;;;;;;4934630;29;20421;-78
2021/04/12 10:14:14;;;;;;;6.50;4.97;;;11.80;48.00;;;;;;4922133;29;20213;-76
2021/04/12 10:17:18;;;;;;;15.07;4.17;;;12.60;47.80;;;;;;4958841;28;20424;-79
2021/04/12 10:19:48;;;;;;;4.87;4.10;;;13.00;44.70;;;;;;4937534;29;20448;-77
2021/04/12 10:22:35;;;;;;;19.00;13.40;;;12.40;44.50;;;;;;4947089;29;20438;-78
2021/04/12 10:25:08;;;;;;;7.67;6.03;;;11.60;47.00;;;;;;4913540;29;20460;-79
2021/04/12 10:27:44;;;;;;;6.53;4.20;;;10.80;50.30;;;;;;4934871;29;20430;-78
2021/04/12 10:30:13;;;;;;;4.20;3.40;;;10.00;51.40;;;;;;4949383;29;20444;-78
2021/04/12 10:32:53;;;;;;;4.80;3.53;;;9.30;53.90;;;;;;4936077;29;20409;-80
2021/04/12 10:35:57;;;;;;;4.60;3.80;;;8.50;56.00;;;;;;4941320;29;20440;-80
2021/04/12 10:38:40;;;;;;;8.77;4.20;;;7.90;58.70;;;;;;4871246;29;20476;-79
2021/04/12 10:41:26;;;;;;;8.00;6.33;;;7.60;62.10;;;;;;4941148;29;20433;-79
2021/04/12 10:44:11;;;;;;;9.20;5.97;;;7.40;61.70;;;;;;4923942;29;20446;-79
2021/04/12 10:47:28;;;;;;;6.10;4.60;;;7.50;63.80;;;;;;4945028;29;20525;-77
2021/04/12 10:50:27;;;;;;;11.00;6.10;;;7.80;64.30;;;;;;4937853;29;20433;-79
2021/04/12 10:53:11;;;;;;;6.97;5.30;;;8.00;63.10;;;;;;4937010;29;20427;-78
2021/04/12 10:55:47;;;;;;;6.70;5.90;;;8.00;61.80;;;;;;4941747;29;20423;-78
2021/04/12 10:58:53;;;;;;;13.60;6.13;;;7.80;61.50;;;;;;4947688;29;20898;-76
2021/04/12 11:01:45;;;;;;;8.37;6.10;;;7.70;61.80;;;;;;4939008;29;20425;-77
2021/04/12 11:07:52;;;;;;;11.23;6.80;;;8.00;64.60;;;;;;4939742;29;20504;-78
2021/04/12 11:10:34;;;;;;;7.00;5.57;;;8.40;65.60;;;;;;4919201;29;20476;-77
2021/04/12 11:13:10;;;;;;;9.93;5.23;;;8.90;63.50;;;;;;4940108;29;20424;-78
2021/04/12 11:16:14;;;;;;;6.53;5.17;;;9.20;61.50;;;;;;4941970;29;20425;-79
2021/04/12 11:19:10;;;;;;;5.90;3.93;;;9.40;60.40;;;;;;4912218;29;20442;-79
2021/04/12 11:21:41;;;;;;;2.63;1.77;;;9.60;59.00;;;;;;4938013;29;20425;-79
2021/04/12 11:24:43;;;;;;;1.37;0.80;;;9.40;53.20;;;;;;4935380;29;20425;-78
2021/04/12 11:27:30;;;;;;;3.17;1.67;;;8.60;52.00;;;;;;4925375;29;20903;-79
2021/04/12 11:30:07;;;;;;;4.47;1.67;;;7.60;56.10;;;;;;4922692;29;20443;-78
2021/04/12 11:32:51;;;;;;;2.00;1.50;;;7.20;57.40;;;;;;4950892;23;21277;-77
2021/04/12 11:35:47;;;;;;;3.20;1.63;;;6.80;60.40;;;;;;4939487;29;20425;-78
2021/04/12 11:38:20;;;;;;;3.00;1.63;;;6.40;62.00;;;;;;4951689;29;20416;-76
2021/04/12 11:41:00;;;;;;;2.73;1.33;;;6.20;63.30;;;;;;4954253;29;20416;-78
2021/04/12 11:43:40;;;;;;;31.17;16.97;;;6.10;64.00;;;;;;4930098;29;20440;-77
2021/04/12 11:46:18;;;;;;;2.87;2.40;;;6.30;68.70;;;;;;4949171;29;20462;-77
2021/04/12 11:48:55;;;;;;;2.80;1.20;;;6.70;65.60;;;;;;4964305;29;20420;-78
2021/04/12 11:51:32;;;;;;;2.70;1.70;;;7.00;61.90;;;;;;4951234;28;20488;-77
2021/04/12 11:54:00;;;;;;;3.63;1.50;;;7.50;62.00;;;;;;4960113;29;20446;-79
2021/04/12 11:56:47;;;;;;;1.90;1.30;;;7.90;59.30;;;;;;4965223;29;20500;-78
2021/04/12 11:59:35;;;;;;;3.50;1.90;;;8.10;57.50;;;;;;4949579;29;21441;-79
2021/04/12 12:02:25;;;;;;;9.43;3.80;;;8.30;57.70;;;;;;4946800;29;20568;-78
2021/04/12 12:04:56;;;;;;;39.30;25.53;;;8.30;56.30;;;;;;4965127;29;20455;-79
2021/04/12 12:07:37;;;;;;;3.87;2.20;;;8.20;55.70;;;;;;4928191;29;20491;-79
2021/04/12 12:10:25;;;;;;;4.43;1.93;;;8.10;56.70;;;;;;4952616;29;20511;-78
2021/04/12 12:12:59;;;;;;;4.10;2.20;;;8.40;58.30;;;;;;4952947;29;20428;-79
2021/04/12 12:16:07;;;;;;;7.10;4.23;;;8.80;57.50;;;;;;4951413;29;20961;-77
2021/04/12 12:18:39;;;;;;;25.53;16.80;;;9.30;54.40;;;;;;4949406;29;20421;-79
2021/04/12 12:21:18;;;;;;;5.10;1.90;;;9.40;52.70;;;;;;4953651;28;20485;-77
2021/04/12 12:24:11;;;;;;;3.73;2.13;;;8.70;52.40;;;;;;4969248;28;20459;-76
2021/04/12 12:26:49;;;;;;;4.80;2.17;;;7.80;55.90;;;;;;4939959;29;20507;-77
2021/04/12 12:29:26;;;;;;;6.47;3.00;;;7.10;59.10;;;;;;4961637;28;20424;-76
2021/04/12 12:32:17;;;;;;;3.60;2.27;;;6.70;61.10;;;;;;4959964;29;20531;-77
2021/04/12 12:35:01;;;;;;;5.07;2.47;;;6.70;63.70;;;;;;4946899;29;20424;-78
2021/04/12 12:37:46;;;;;;;8.07;4.50;;;7.20;67.30;;;;;;4942531;29;20416;-77
2021/04/12 12:40:28;;;;;;;3.03;2.60;;;7.60;66.10;;;;;;4964433;28;21024;-77
2021/04/12 12:43:04;;;;;;;9.70;2.80;;;8.00;64.10;;;;;;4965842;29;20455;-77
2021/04/12 12:45:41;;;;;;;2.27;2.07;;;8.30;62.30;;;;;;4966994;29;20456;-77
2021/04/12 12:48:19;;;;;;;3.40;2.20;;;8.30;61.10;;;;;;4968678;29;20424;-78
2021/04/12 12:51:03;;;;;;;3.90;2.80;;;8.10;62.80;;;;;;4955564;29;20413;-76
2021/04/12 12:53:34;;;;;;;2.60;2.20;;;8.20;64.10;;;;;;4973142;29;20439;-78
2021/04/12 12:56:41;;;;;;;4.13;2.90;;;8.20;60.20;;;;;;4952507;29;20426;-77
2021/04/12 12:59:25;;;;;;;3.80;2.50;;;8.30;63.20;;;;;;4951456;29;20437;-77
2021/04/12 13:01:53;;;;;;;2.73;2.10;;;8.20;60.60;;;;;;4962887;29;20639;-77
2021/04/12 13:04:26;;;;;;;2.77;2.57;;;7.90;63.30;;;;;;4928999;28;20456;-77
2021/04/12 13:06:55;;;;;;;9.00;3.80;;;7.90;64.00;;;;;;4932287;29;20514;-77
2021/04/12 13:09:23;;;;;;;5.40;2.80;;;8.10;65.40;;;;;;4975117;28;20491;-77
2021/04/12 13:11:53;;;;;;;3.27;2.57;;;8.00;61.10;;;;;;4963833;29;20413;-77
2021/04/12 13:14:45;;;;;;;5.70;2.67;;;7.90;61.50;;;;;;4961575;29;20935;-77
2021/04/12 13:17:30;;;;;;;4.47;3.60;;;7.70;61.30;;;;;;4959718;29;20408;-77
2021/04/12 13:20:04;;;;;;;4.57;2.43;;;7.60;64.10;;;;;;4965023;29;20485;-78
2021/04/12 13:22:35;;;;;;;3.80;2.63;;;7.60;61.00;;;;;;4956489;29;20559;-78
2021/04/12 13:25:24;;;;;;;3.20;2.40;;;7.60;59.00;;;;;;4930169;29;20468;-77
2021/04/12 13:28:00;;;;;;;12.70;2.13;;;7.90;59.40;;;;;;4957652;28;20431;-81
2021/04/12 13:30:30;;;;;;;3.77;2.10;;;8.10;57.30;;;;;;4965455;28;20404;-81
2021/04/12 13:33:16;;;;;;;3.40;2.10;;;8.30;56.60;;;;;;4932432;29;21036;-82
2021/04/12 13:35:45;;;;;;;5.23;2.60;;;8.30;56.90;;;;;;4953350;29;20428;-79
2021/04/12 13:38:19;;;;;;;3.33;2.30;;;8.50;56.50;;;;;;4963389;28;20438;-83
2021/04/12 13:41:20;;;;;;;2.30;2.10;;;8.70;56.20;;;;;;4955648;29;20405;-79
2021/04/12 13:44:16;;;;;;;3.60;2.90;;;8.70;55.90;;;;;;4953490;29;20448;-76
2021/04/12 13:47:17;;;;;;;4.70;3.17;;;8.70;56.40;;;;;;4956709;29;20433;-77
2021/04/12 13:50:17;;;;;;;6.80;3.50;;;8.80;56.90;;;;;;4939872;29;20429;-75
2021/04/12 13:52:56;;;;;;;31.00;18.03;;;8.70;56.90;;;;;;4928238;29;20428;-77
2021/04/12 13:55:33;;;;;;;5.17;3.50;;;8.60;58.90;;;;;;4964318;28;20427;-77
2021/04/12 13:58:27;;;;;;;5.07;4.20;;;8.60;58.80;;;;;;4955650;28;20424;-78
2021/04/12 14:01:01;;;;;;;4.67;3.90;;;8.60;57.60;;;;;;4941793;29;20566;-77
2021/04/12 14:03:30;;;;;;;4.00;3.70;;;8.40;58.40;;;;;;4956420;29;20441;-77
2021/04/12 14:06:03;;;;;;;7.37;3.17;;;8.30;58.40;;;;;;4949836;29;20457;-78
2021/04/12 14:08:56;;;;;;;5.77;3.70;;;8.40;58.80;;;;;;4961243;29;20428;-77
2021/04/12 14:11:36;;;;;;;3.70;3.20;;;8.50;58.30;;;;;;4955887;28;20424;-76
2021/04/12 14:14:13;;;;;;;3.83;3.43;;;8.80;57.40;;;;;;4980521;28;20535;-76
2021/04/12 14:16:40;;;;;;;4.40;4.00;;;9.00;57.10;;;;;;4943564;29;20447;-78
2021/04/12 14:19:23;;;;;;;2.90;2.53;;;9.10;57.10;;;;;;4943308;29;20444;-75
2021/04/12 14:22:01;;;;;;;4.40;3.40;;;9.10;57.10;;;;;;4948298;29;20423;-76
2021/04/12 14:24:36;;;;;;;3.90;3.10;;;9.00;54.30;;;;;;4946763;28;20447;-76
2021/04/12 14:30:39;;;;;;;4.17;3.00;;;8.70;54.60;;;;;;4964745;29;20417;-77
2021/04/12 14:33:06;;;;;;;4.80;3.07;;;8.50;55.90;;;;;;4946071;29;20533;-75
2021/04/12 14:35:39;;;;;;;6.90;3.93;;;8.30;55.50;;;;;;4957754;29;20405;-78
2021/04/12 14:38:39;;;;;;;5.03;3.50;;;8.20;56.40;;;;;;4936136;29;20436;-77
2021/04/12 14:41:26;;;;;;;3.37;2.90;;;8.20;57.80;;;;;;4944447;28;20452;-78
2021/04/12 14:43:59;;;;;;;6.00;3.67;;;8.30;57.60;;;;;;4975815;28;20432;-78
2021/04/12 14:46:45;;;;;;;5.93;2.93;;;8.50;55.40;;;;;;4934334;29;20937;-75